sensor_id;sensor_type;location;lat;lon;timestamp;temperature;humidity
1083;DHT22;530;51.448;7.238;2023-03-23T00:00:58;12.20;99.90
1083;DHT22;530;51.448;7.238;2023-03-23T00:03:24;12.20;99.90
1083;DHT22;530;51.448;7.238;2023-03-23T00:05:51;12.20;99.90
1083;DHT22;530;51.448;7.238;2023-03-23T00:08:23;12.20;99.90
1083;DHT22;530;51.448;7.238;2023-03-23T00:10:50;12.20;99.90
1083;DHT22;530;51.448;7.238;2023-03-23T00:13:23;12.20;99.90
1083;DHT22;530;51.448;7.238;2023-03-23T00:15:49;12.20;99.90
1083;DHT22;530;51.448;7.238;2023-03-23T00:18:15;12.10;99.90
1083;DHT22;530;51.448;7.238;2023-03-23T00:20:55;12.10;99.90
1083;DHT22;530;51.448;7.238;2023-03-23T00:23:24;12.20;99.90
1083;DHT22;530;51.448;7.238;2023-03-23T00:25:55;12.20;99.90
1083;DHT22;530;51.448;7.238;2023-03-23T00:28:25;12.20;99.90
1083;DHT22;530;51.448;7.238;2023-03-23T00:33:26;12.20;99.90
1083;DHT22;530;51.448;7.238;2023-03-23T00:35:52;12.20;99.90
1083;DHT22;530;51.448;7.238;2023-03-23T00:38:23;12.10;99.90
1083;DHT22;530;51.448;7.238;2023-03-23T00:40:49;12.10;99.90
1083;DHT22;530;51.448;7.238;2023-03-23T00:43:16;12.10;99.90
1083;DHT22;530;51.448;7.238;2023-03-23T00:45:43;12.10;99.90
1083;DHT22;530;51.448;7.238;2023-03-23T00:48:22;12.10;99.90
1083;DHT22;530;51.448;7.238;2023-03-23T00:50:49;12.10;99.90
1083;DHT22;530;51.448;7.238;2023-03-23T00:53:15;12.10;99.90
1083;DHT22;530;51.448;7.238;2023-03-23T00:55:45;12.20;99.90
1083;DHT22;530;51.448;7.238;2023-03-23T00:58:12;12.20;99.90
1083;DHT22;530;51.448;7.238;2023-03-23T01:00:39;12.20;99.90
1083;DHT22;530;51.448;7.238;2023-03-23T01:03:06;12.20;99.90
1083;DHT22;530;51.448;7.238;2023-03-23T01:05:36;12.20;99.90
1083;DHT22;530;51.448;7.238;2023-03-23T01:08:03;12.30;99.90
1083;DHT22;530;51.448;7.238;2023-03-23T01:10:29;12.20;99.90
1083;DHT22;530;51.448;7.238;2023-03-23T01:13:01;12.20;99.90
1083;DHT22;530;51.448;7.238;2023-03-23T01:15:28;12.30;99.90
1083;DHT22;530;51.448;7.238;2023-03-23T01:17:54;12.30;99.90
1083;DHT22;530;51.448;7.238;2023-03-23T01:20:20;12.30;99.90
1083;DHT22;530;51.448;7.238;2023-03-23T01:22:46;12.20;99.90
1083;DHT22;530;51.448;7.238;2023-03-23T01:25:13;12.20;99.90
1083;DHT22;530;51.448;7.238;2023-03-23T01:27:39;12.20;99.90
1083;DHT22;530;51.448;7.238;2023-03-23T01:30:07;12.20;99.90
1083;DHT22;530;51.448;7.238;2023-03-23T01:32:33;12.20;99.90
1083;DHT22;530;51.448;7.238;2023-03-23T01:34:58;12.20;99.90
1083;DHT22;530;51.448;7.238;2023-03-23T01:37:24;12.20;99.90
1083;DHT22;530;51.448;7.238;2023-03-23T01:39:55;12.20;99.90
1083;DHT22;530;51.448;7.238;2023-03-23T01:42:30;12.20;99.90
1083;DHT22;530;51.448;7.238;2023-03-23T01:47:40;12.20;99.90
1083;DHT22;530;51.448;7.238;2023-03-23T01:50:06;12.20;99.90
1083;DHT22;530;51.448;7.238;2023-03-23T01:52:31;12.20;99.90
1083;DHT22;530;51.448;7.238;2023-03-23T01:54:59;12.20;99.90
1083;DHT22;530;51.448;7.238;2023-03-23T01:57:26;12.20;99.90
1083;DHT22;530;51.448;7.238;2023-03-23T01:59:53;12.20;99.90
1083;DHT22;530;51.448;7.238;2023-03-23T02:02:22;12.20;99.90
1083;DHT22;530;51.448;7.238;2023-03-23T02:04:48;12.20;99.90
1083;DHT22;530;51.448;7.238;2023-03-23T02:07:15;12.20;99.90
1083;DHT22;530;51.448;7.238;2023-03-23T02:09:42;12.20;99.90
1083;DHT22;530;51.448;7.238;2023-03-23T02:12:08;12.10;99.90
1083;DHT22;530;51.448;7.238;2023-03-23T02:14:34;12.10;99.90
1083;DHT22;530;51.448;7.238;2023-03-23T02:17:18;12.10;99.90
1083;DHT22;530;51.448;7.238;2023-03-23T02:20:28;12.10;99.90
1083;DHT22;530;51.448;7.238;2023-03-23T02:28:45;12.10;99.90
1083;DHT22;530;51.448;7.238;2023-03-23T02:34:26;12.10;99.90
1083;DHT22;530;51.448;7.238;2023-03-23T02:36:58;12.10;99.90
1083;DHT22;530;51.448;7.238;2023-03-23T02:39:39;12.10;99.90
1083;DHT22;530;51.448;7.238;2023-03-23T02:42:09;12.10;99.90
1083;DHT22;530;51.448;7.238;2023-03-23T02:44:38;12.10;99.90
1083;DHT22;530;51.448;7.238;2023-03-23T02:47:09;12.20;99.90
1083;DHT22;530;51.448;7.238;2023-03-23T02:49:39;12.10;99.90
1083;DHT22;530;51.448;7.238;2023-03-23T02:52:10;12.10;99.90
1083;DHT22;530;51.448;7.238;2023-03-23T02:54:41;12.10;99.90
1083;DHT22;530;51.448;7.238;2023-03-23T02:57:08;12.10;99.90
1083;DHT22;530;51.448;7.238;2023-03-23T02:59:35;12.10;99.90
1083;DHT22;530;51.448;7.238;2023-03-23T03:02:07;12.10;99.90
1083;DHT22;530;51.448;7.238;2023-03-23T03:04:36;12.10;99.90
1083;DHT22;530;51.448;7.238;2023-03-23T03:07:33;12.10;99.90
1083;DHT22;530;51.448;7.238;2023-03-23T03:10:18;12.10;99.90
1083;DHT22;530;51.448;7.238;2023-03-23T03:12:57;12.10;99.90
1083;DHT22;530;51.448;7.238;2023-03-23T03:18:23;12.10;99.90
1083;DHT22;530;51.448;7.238;2023-03-23T03:20:54;12.10;99.90
1083;DHT22;530;51.448;7.238;2023-03-23T03:23:23;12.10;99.90
1083;DHT22;530;51.448;7.238;2023-03-23T03:25:50;12.00;99.90
1083;DHT22;530;51.448;7.238;2023-03-23T03:28:18;12.10;99.90
1083;DHT22;530;51.448;7.238;2023-03-23T03:30:52;12.00;99.90
1083;DHT22;530;51.448;7.238;2023-03-23T03:33:20;12.00;99.90
1083;DHT22;530;51.448;7.238;2023-03-23T03:35:46;12.00;99.90
1083;DHT22;530;51.448;7.238;2023-03-23T03:38:13;12.00;99.90
1083;DHT22;530;51.448;7.238;2023-03-23T03:40:39;12.10;99.90
1083;DHT22;530;51.448;7.238;2023-03-23T03:43:06;12.00;99.90
1083;DHT22;530;51.448;7.238;2023-03-23T03:45:32;12.00;99.90
1083;DHT22;530;51.448;7.238;2023-03-23T03:47:58;12.00;99.90
1083;DHT22;530;51.448;7.238;2023-03-23T03:50:25;12.00;99.90
1083;DHT22;530;51.448;7.238;2023-03-23T03:52:51;12.00;99.90
1083;DHT22;530;51.448;7.238;2023-03-23T03:55:18;12.00;99.90
1083;DHT22;530;51.448;7.238;2023-03-23T03:57:43;12.10;99.90
1083;DHT22;530;51.448;7.238;2023-03-23T04:00:10;12.10;99.90
1083;DHT22;530;51.448;7.238;2023-03-23T04:02:44;12.10;99.90
1083;DHT22;530;51.448;7.238;2023-03-23T04:05:13;12.10;99.90
1083;DHT22;530;51.448;7.238;2023-03-23T04:07:38;12.10;99.90
1083;DHT22;530;51.448;7.238;2023-03-23T04:10:09;12.10;99.90
1083;DHT22;530;51.448;7.238;2023-03-23T04:12:37;12.10;99.90
1083;DHT22;530;51.448;7.238;2023-03-23T04:15:03;12.10;99.90
1083;DHT22;530;51.448;7.238;2023-03-23T04:17:29;12.10;99.90
1083;DHT22;530;51.448;7.238;2023-03-23T04:19:55;12.10;99.90
1083;DHT22;530;51.448;7.238;2023-03-23T04:22:24;12.20;99.90
1083;DHT22;530;51.448;7.238;2023-03-23T04:24:56;12.10;99.90
1083;DHT22;530;51.448;7.238;2023-03-23T04:27:24;12.10;99.90
1083;DHT22;530;51.448;7.238;2023-03-23T04:29:50;12.10;99.90
1083;DHT22;530;51.448;7.238;2023-03-23T04:32:15;12.10;99.90
1083;DHT22;530;51.448;7.238;2023-03-23T04:34:43;12.10;99.90
1083;DHT22;530;51.448;7.238;2023-03-23T04:37:09;12.00;99.90
1083;DHT22;530;51.448;7.238;2023-03-23T04:39:35;12.10;99.90
1083;DHT22;530;51.448;7.238;2023-03-23T04:42:01;12.00;99.90
1083;DHT22;530;51.448;7.238;2023-03-23T04:44:28;12.00;99.90
1083;DHT22;530;51.448;7.238;2023-03-23T04:46:54;12.00;99.90
1083;DHT22;530;51.448;7.238;2023-03-23T04:49:20;12.00;99.90
1083;DHT22;530;51.448;7.238;2023-03-23T04:51:46;12.10;99.90
1083;DHT22;530;51.448;7.238;2023-03-23T04:54:12;12.10;99.90
1083;DHT22;530;51.448;7.238;2023-03-23T04:56:38;12.00;99.90
1083;DHT22;530;51.448;7.238;2023-03-23T04:59:03;12.00;99.90
1083;DHT22;530;51.448;7.238;2023-03-23T05:01:31;12.10;99.90
1083;DHT22;530;51.448;7.238;2023-03-23T05:03:59;12.10;99.90
1083;DHT22;530;51.448;7.238;2023-03-23T05:06:25;12.10;99.90
1083;DHT22;530;51.448;7.238;2023-03-23T05:08:51;12.10;99.90
1083;DHT22;530;51.448;7.238;2023-03-23T05:11:17;12.10;99.90
1083;DHT22;530;51.448;7.238;2023-03-23T05:13:42;12.10;99.90
1083;DHT22;530;51.448;7.238;2023-03-23T05:16:09;12.10;99.90
1083;DHT22;530;51.448;7.238;2023-03-23T05:18:35;12.10;99.90
1083;DHT22;530;51.448;7.238;2023-03-23T05:21:02;12.10;99.90
1083;DHT22;530;51.448;7.238;2023-03-23T05:23:29;12.10;99.90
1083;DHT22;530;51.448;7.238;2023-03-23T05:25:59;12.10;99.90
1083;DHT22;530;51.448;7.238;2023-03-23T05:28:28;12.10;99.90
1083;DHT22;530;51.448;7.238;2023-03-23T05:30:56;12.10;99.90
1083;DHT22;530;51.448;7.238;2023-03-23T05:33:22;12.20;99.90
1083;DHT22;530;51.448;7.238;2023-03-23T05:35:48;12.10;99.90
1083;DHT22;530;51.448;7.238;2023-03-23T05:38:15;12.10;99.90
1083;DHT22;530;51.448;7.238;2023-03-23T05:40:42;12.20;99.90
1083;DHT22;530;51.448;7.238;2023-03-23T05:43:08;12.20;99.90
1083;DHT22;530;51.448;7.238;2023-03-23T05:45:34;12.20;99.90
1083;DHT22;530;51.448;7.238;2023-03-23T05:48:00;12.10;99.90
1083;DHT22;530;51.448;7.238;2023-03-23T05:50:26;12.20;99.90
1083;DHT22;530;51.448;7.238;2023-03-23T05:52:54;12.20;99.90
1083;DHT22;530;51.448;7.238;2023-03-23T05:55:20;12.20;99.90
1083;DHT22;530;51.448;7.238;2023-03-23T05:57:46;12.20;99.90
1083;DHT22;530;51.448;7.238;2023-03-23T06:00:13;12.20;99.90
1083;DHT22;530;51.448;7.238;2023-03-23T06:02:48;12.20;99.90
1083;DHT22;530;51.448;7.238;2023-03-23T06:05:15;12.20;99.90
1083;DHT22;530;51.448;7.238;2023-03-23T06:07:42;12.20;99.90
1083;DHT22;530;51.448;7.238;2023-03-23T06:10:08;12.20;99.90
1083;DHT22;530;51.448;7.238;2023-03-23T06:12:35;12.20;99.90
1083;DHT22;530;51.448;7.238;2023-03-23T06:15:01;12.20;99.90
1083;DHT22;530;51.448;7.238;2023-03-23T06:17:28;12.20;99.90
1083;DHT22;530;51.448;7.238;2023-03-23T06:19:53;12.20;99.90
1083;DHT22;530;51.448;7.238;2023-03-23T06:22:19;12.20;99.90
1083;DHT22;530;51.448;7.238;2023-03-23T06:24:46;12.20;99.90
1083;DHT22;530;51.448;7.238;2023-03-23T06:27:12;12.20;99.90
1083;DHT22;530;51.448;7.238;2023-03-23T06:29:39;12.20;99.90
1083;DHT22;530;51.448;7.238;2023-03-23T06:32:05;12.30;99.90
1083;DHT22;530;51.448;7.238;2023-03-23T06:34:31;12.30;99.90
1083;DHT22;530;51.448;7.238;2023-03-23T06:36:58;12.30;99.90
1083;DHT22;530;51.448;7.238;2023-03-23T06:39:24;12.30;99.90
1083;DHT22;530;51.448;7.238;2023-03-23T06:41:50;12.30;99.90
1083;DHT22;530;51.448;7.238;2023-03-23T06:44:15;12.40;99.90
1083;DHT22;530;51.448;7.238;2023-03-23T06:46:41;12.40;99.90
1083;DHT22;530;51.448;7.238;2023-03-23T06:49:08;12.40;99.90
1083;DHT22;530;51.448;7.238;2023-03-23T06:51:34;12.40;99.90
1083;DHT22;530;51.448;7.238;2023-03-23T06:54:00;12.40;99.90
1083;DHT22;530;51.448;7.238;2023-03-23T06:56:26;12.40;99.90
1083;DHT22;530;51.448;7.238;2023-03-23T06:58:52;12.40;99.90
1083;DHT22;530;51.448;7.238;2023-03-23T07:01:18;12.40;99.90
1083;DHT22;530;51.448;7.238;2023-03-23T07:03:43;12.40;99.90
1083;DHT22;530;51.448;7.238;2023-03-23T07:06:10;12.40;99.90
1083;DHT22;530;51.448;7.238;2023-03-23T07:08:36;12.40;99.90
1083;DHT22;530;51.448;7.238;2023-03-23T07:11:02;12.40;99.90
1083;DHT22;530;51.448;7.238;2023-03-23T07:13:29;12.40;99.90
1083;DHT22;530;51.448;7.238;2023-03-23T07:15:54;12.40;99.90
1083;DHT22;530;51.448;7.238;2023-03-23T07:18:20;12.50;99.90
1083;DHT22;530;51.448;7.238;2023-03-23T07:20:50;12.50;99.90
1083;DHT22;530;51.448;7.238;2023-03-23T07:23:17;12.50;99.90
1083;DHT22;530;51.448;7.238;2023-03-23T07:25:43;12.50;99.90
1083;DHT22;530;51.448;7.238;2023-03-23T07:28:09;12.50;99.90
1083;DHT22;530;51.448;7.238;2023-03-23T07:30:35;12.50;99.90
1083;DHT22;530;51.448;7.238;2023-03-23T07:33:04;12.50;99.90
1083;DHT22;530;51.448;7.238;2023-03-23T07:35:30;12.50;99.90
1083;DHT22;530;51.448;7.238;2023-03-23T07:37:57;12.50;99.90
1083;DHT22;530;51.448;7.238;2023-03-23T07:40:23;12.50;99.90
1083;DHT22;530;51.448;7.238;2023-03-23T07:42:53;12.50;99.90
1083;DHT22;530;51.448;7.238;2023-03-23T07:45:20;12.50;99.90
1083;DHT22;530;51.448;7.238;2023-03-23T07:47:47;12.50;99.90
1083;DHT22;530;51.448;7.238;2023-03-23T07:50:12;12.50;99.90
1083;DHT22;530;51.448;7.238;2023-03-23T07:52:39;12.60;99.90
1083;DHT22;530;51.448;7.238;2023-03-23T07:55:08;12.50;99.90
1083;DHT22;530;51.448;7.238;2023-03-23T07:57:34;12.60;99.90
1083;DHT22;530;51.448;7.238;2023-03-23T08:00:00;12.60;99.90
1083;DHT22;530;51.448;7.238;2023-03-23T08:02:28;12.60;99.90
1083;DHT22;530;51.448;7.238;2023-03-23T08:04:57;12.60;99.90
1083;DHT22;530;51.448;7.238;2023-03-23T08:07:26;12.70;99.90
1083;DHT22;530;51.448;7.238;2023-03-23T08:09:51;12.70;99.90
1083;DHT22;530;51.448;7.238;2023-03-23T08:12:17;12.70;99.90
1083;DHT22;530;51.448;7.238;2023-03-23T08:14:43;12.70;99.90
1083;DHT22;530;51.448;7.238;2023-03-23T08:17:09;12.70;99.90
1083;DHT22;530;51.448;7.238;2023-03-23T08:19:35;12.70;99.90
1083;DHT22;530;51.448;7.238;2023-03-23T08:22:05;12.70;99.90
1083;DHT22;530;51.448;7.238;2023-03-23T08:24:31;12.70;99.90
1083;DHT22;530;51.448;7.238;2023-03-23T08:26:59;12.70;99.90
1083;DHT22;530;51.448;7.238;2023-03-23T08:29:25;12.70;99.90
1083;DHT22;530;51.448;7.238;2023-03-23T08:31:51;12.80;99.90
1083;DHT22;530;51.448;7.238;2023-03-23T08:34:16;12.80;99.90
1083;DHT22;530;51.448;7.238;2023-03-23T08:36:42;12.80;99.90
1083;DHT22;530;51.448;7.238;2023-03-23T08:39:10;12.80;99.90
1083;DHT22;530;51.448;7.238;2023-03-23T08:41:36;12.80;99.90
1083;DHT22;530;51.448;7.238;2023-03-23T08:44:01;12.80;99.90
1083;DHT22;530;51.448;7.238;2023-03-23T08:46:28;12.90;99.90
1083;DHT22;530;51.448;7.238;2023-03-23T08:48:54;12.90;99.90
1083;DHT22;530;51.448;7.238;2023-03-23T08:51:20;12.80;99.90
1083;DHT22;530;51.448;7.238;2023-03-23T08:53:46;12.90;99.90
1083;DHT22;530;51.448;7.238;2023-03-23T08:56:12;12.90;99.90
1083;DHT22;530;51.448;7.238;2023-03-23T08:58:38;13.00;99.90
1083;DHT22;530;51.448;7.238;2023-03-23T09:01:06;13.00;99.90
1083;DHT22;530;51.448;7.238;2023-03-23T09:03:34;13.00;99.90
1083;DHT22;530;51.448;7.238;2023-03-23T09:06:05;13.00;99.90
1083;DHT22;530;51.448;7.238;2023-03-23T09:08:32;13.00;99.90
1083;DHT22;530;51.448;7.238;2023-03-23T09:11:07;13.00;99.90
1083;DHT22;530;51.448;7.238;2023-03-23T09:13:34;13.10;99.90
1083;DHT22;530;51.448;7.238;2023-03-23T09:16:00;13.10;99.90
1083;DHT22;530;51.448;7.238;2023-03-23T09:18:27;13.10;99.90
1083;DHT22;530;51.448;7.238;2023-03-23T09:20:53;13.10;99.90
1083;DHT22;530;51.448;7.238;2023-03-23T09:23:19;13.10;99.90
1083;DHT22;530;51.448;7.238;2023-03-23T09:25:46;13.10;99.90
1083;DHT22;530;51.448;7.238;2023-03-23T09:28:12;13.20;99.90
1083;DHT22;530;51.448;7.238;2023-03-23T09:30:39;13.10;99.90
1083;DHT22;530;51.448;7.238;2023-03-23T09:33:07;13.10;99.90
1083;DHT22;530;51.448;7.238;2023-03-23T09:35:34;13.20;99.90
1083;DHT22;530;51.448;7.238;2023-03-23T09:38:01;13.20;99.90
1083;DHT22;530;51.448;7.238;2023-03-23T09:49:08;13.20;99.90
1083;DHT22;530;51.448;7.238;2023-03-23T09:51:44;13.30;99.90
1083;DHT22;530;51.448;7.238;2023-03-23T09:54:26;13.30;99.90
1083;DHT22;530;51.448;7.238;2023-03-23T09:56:54;13.30;99.90
1083;DHT22;530;51.448;7.238;2023-03-23T09:59:35;13.30;99.90
1083;DHT22;530;51.448;7.238;2023-03-23T10:02:27;13.30;99.90
1083;DHT22;530;51.448;7.238;2023-03-23T10:04:55;13.40;99.90
1083;DHT22;530;51.448;7.238;2023-03-23T10:07:26;13.30;99.90
1083;DHT22;530;51.448;7.238;2023-03-23T10:09:57;13.40;99.90
1083;DHT22;530;51.448;7.238;2023-03-23T10:12:48;13.30;99.90
1083;DHT22;530;51.448;7.238;2023-03-23T10:15:31;13.30;99.90
1083;DHT22;530;51.448;7.238;2023-03-23T10:21:13;13.30;99.90
1083;DHT22;530;51.448;7.238;2023-03-23T10:31:57;13.10;99.90
1083;DHT22;530;51.448;7.238;2023-03-23T10:34:40;13.00;99.90
1083;DHT22;530;51.448;7.238;2023-03-23T10:37:17;13.00;99.90
1083;DHT22;530;51.448;7.238;2023-03-23T10:39:56;12.80;99.90
1083;DHT22;530;51.448;7.238;2023-03-23T10:44:56;12.70;99.90
1083;DHT22;530;51.448;7.238;2023-03-23T10:47:23;12.60;99.90
1083;DHT22;530;51.448;7.238;2023-03-23T10:49:53;12.60;99.90
1083;DHT22;530;51.448;7.238;2023-03-23T10:52:41;12.60;99.90
1083;DHT22;530;51.448;7.238;2023-03-23T10:57:39;12.50;99.90
1083;DHT22;530;51.448;7.238;2023-03-23T11:00:24;12.50;99.90
1083;DHT22;530;51.448;7.238;2023-03-23T11:07:59;12.40;99.90
1083;DHT22;530;51.448;7.238;2023-03-23T11:10:39;12.30;99.90
1083;DHT22;530;51.448;7.238;2023-03-23T11:13:09;12.30;99.90
1083;DHT22;530;51.448;7.238;2023-03-23T11:15:40;12.30;99.90
1083;DHT22;530;51.448;7.238;2023-03-23T11:18:10;12.30;99.90
1083;DHT22;530;51.448;7.238;2023-03-23T11:20:40;12.40;99.90
1083;DHT22;530;51.448;7.238;2023-03-23T11:23:24;12.30;99.90
1083;DHT22;530;51.448;7.238;2023-03-23T11:26:18;12.30;99.90
1083;DHT22;530;51.448;7.238;2023-03-23T11:31:33;12.20;99.90
1083;DHT22;530;51.448;7.238;2023-03-23T11:34:30;12.20;99.90
1083;DHT22;530;51.448;7.238;2023-03-23T11:39:33;12.10;99.90
1083;DHT22;530;51.448;7.238;2023-03-23T11:42:11;12.20;99.90
1083;DHT22;530;51.448;7.238;2023-03-23T11:44:42;12.10;99.90
1083;DHT22;530;51.448;7.238;2023-03-23T11:47:15;12.10;99.90
1083;DHT22;530;51.448;7.238;2023-03-23T11:52:19;12.10;99.90
1083;DHT22;530;51.448;7.238;2023-03-23T11:54:56;12.10;99.90
1083;DHT22;530;51.448;7.238;2023-03-23T11:57:22;12.10;99.90
1083;DHT22;530;51.448;7.238;2023-03-23T11:59:49;12.10;99.90
1083;DHT22;530;51.448;7.238;2023-03-23T12:02:35;12.10;99.90
1083;DHT22;530;51.448;7.238;2023-03-23T12:19:24;12.00;99.90
1083;DHT22;530;51.448;7.238;2023-03-23T12:27:40;12.20;99.90
1083;DHT22;530;51.448;7.238;2023-03-23T12:35:45;12.10;99.90
1083;DHT22;530;51.448;7.238;2023-03-23T12:41:11;12.10;99.90
1083;DHT22;530;51.448;7.238;2023-03-23T12:49:01;12.10;99.90
1083;DHT22;530;51.448;7.238;2023-03-23T12:51:44;12.10;99.90
1083;DHT22;530;51.448;7.238;2023-03-23T12:54:33;12.10;99.90
1083;DHT22;530;51.448;7.238;2023-03-23T13:10:50;12.10;99.90
1083;DHT22;530;51.448;7.238;2023-03-23T13:13:23;12.20;99.90
1083;DHT22;530;51.448;7.238;2023-03-23T13:16:00;12.10;99.90
1083;DHT22;530;51.448;7.238;2023-03-23T13:18:40;12.20;99.90
1083;DHT22;530;51.448;7.238;2023-03-23T13:24:05;12.10;99.90
1083;DHT22;530;51.448;7.238;2023-03-23T13:26:37;12.00;99.90
1083;DHT22;530;51.448;7.238;2023-03-23T13:29:14;12.10;99.90
1083;DHT22;530;51.448;7.238;2023-03-23T13:31:41;12.10;99.90
1083;DHT22;530;51.448;7.238;2023-03-23T13:37:02;12.20;99.90
1083;DHT22;530;51.448;7.238;2023-03-23T13:39:38;12.30;99.90
1083;DHT22;530;51.448;7.238;2023-03-23T14:03:03;12.60;99.90
1083;DHT22;530;51.448;7.238;2023-03-23T14:08:03;12.60;99.90
1083;DHT22;530;51.448;7.238;2023-03-23T14:10:42;12.60;99.90
1083;DHT22;530;51.448;7.238;2023-03-23T14:16:04;12.60;99.90
1083;DHT22;530;51.448;7.238;2023-03-23T14:18:40;12.60;99.90
1083;DHT22;530;51.448;7.238;2023-03-23T14:21:14;12.60;99.90
1083;DHT22;530;51.448;7.238;2023-03-23T14:23:40;12.70;99.90
1083;DHT22;530;51.448;7.238;2023-03-23T14:26:12;12.80;99.90
1083;DHT22;530;51.448;7.238;2023-03-23T14:28:43;12.90;99.90
1083;DHT22;530;51.448;7.238;2023-03-23T14:31:24;12.80;99.90
1083;DHT22;530;51.448;7.238;2023-03-23T14:33:51;12.80;99.90
1083;DHT22;530;51.448;7.238;2023-03-23T14:36:26;12.80;99.90
1083;DHT22;530;51.448;7.238;2023-03-23T14:39:31;12.80;99.90
1083;DHT22;530;51.448;7.238;2023-03-23T14:42:11;12.90;99.90
1083;DHT22;530;51.448;7.238;2023-03-23T14:44:41;12.90;99.90
1083;DHT22;530;51.448;7.238;2023-03-23T14:47:18;12.90;99.90
1083;DHT22;530;51.448;7.238;2023-03-23T14:49:45;12.90;99.90
1083;DHT22;530;51.448;7.238;2023-03-23T14:52:17;13.00;99.90
1083;DHT22;530;51.448;7.238;2023-03-23T14:54:44;13.00;99.90
1083;DHT22;530;51.448;7.238;2023-03-23T14:57:14;13.10;99.90
1083;DHT22;530;51.448;7.238;2023-03-23T14:59:45;13.10;99.90
1083;DHT22;530;51.448;7.238;2023-03-23T15:02:35;13.10;99.90
1083;DHT22;530;51.448;7.238;2023-03-23T15:05:26;13.10;99.90
1083;DHT22;530;51.448;7.238;2023-03-23T15:08:02;13.10;99.90
1083;DHT22;530;51.448;7.238;2023-03-23T15:10:29;13.10;99.90
1083;DHT22;530;51.448;7.238;2023-03-23T15:12:55;13.10;99.90
1083;DHT22;530;51.448;7.238;2023-03-23T15:15:34;13.10;99.90
1083;DHT22;530;51.448;7.238;2023-03-23T15:18:02;13.10;99.90
1083;DHT22;530;51.448;7.238;2023-03-23T15:22:56;13.20;99.90
1083;DHT22;530;51.448;7.238;2023-03-23T15:25:32;13.20;99.90
1083;DHT22;530;51.448;7.238;2023-03-23T15:28:17;13.20;99.90
1083;DHT22;530;51.448;7.238;2023-03-23T15:30:52;13.30;99.90
1083;DHT22;530;51.448;7.238;2023-03-23T15:33:19;13.20;99.90
1083;DHT22;530;51.448;7.238;2023-03-23T15:35:52;13.20;99.90
1083;DHT22;530;51.448;7.238;2023-03-23T15:38:25;13.30;99.90
1083;DHT22;530;51.448;7.238;2023-03-23T15:40:53;13.30;99.90
1083;DHT22;530;51.448;7.238;2023-03-23T15:43:32;13.30;99.90
1083;DHT22;530;51.448;7.238;2023-03-23T15:45:59;13.40;99.90
1083;DHT22;530;51.448;7.238;2023-03-23T15:48:29;13.40;99.90
1083;DHT22;530;51.448;7.238;2023-03-23T15:50:55;13.40;99.90
1083;DHT22;530;51.448;7.238;2023-03-23T15:55:53;13.40;99.90
1083;DHT22;530;51.448;7.238;2023-03-23T15:58:19;13.40;99.90
1083;DHT22;530;51.448;7.238;2023-03-23T16:00:45;13.40;99.90
1083;DHT22;530;51.448;7.238;2023-03-23T16:03:20;13.40;99.90
1083;DHT22;530;51.448;7.238;2023-03-23T16:05:49;13.40;99.90
1083;DHT22;530;51.448;7.238;2023-03-23T16:08:14;13.40;99.90
1083;DHT22;530;51.448;7.238;2023-03-23T16:10:41;13.40;99.90
1083;DHT22;530;51.448;7.238;2023-03-23T16:13:06;13.40;99.90
1083;DHT22;530;51.448;7.238;2023-03-23T16:15:32;13.30;99.90
1083;DHT22;530;51.448;7.238;2023-03-23T16:17:58;13.40;99.90
1083;DHT22;530;51.448;7.238;2023-03-23T16:20:24;13.40;99.90
1083;DHT22;530;51.448;7.238;2023-03-23T16:22:50;13.40;99.90
1083;DHT22;530;51.448;7.238;2023-03-23T16:25:17;13.40;99.90
1083;DHT22;530;51.448;7.238;2023-03-23T16:27:43;13.30;99.90
1083;DHT22;530;51.448;7.238;2023-03-23T16:30:18;13.30;99.90
1083;DHT22;530;51.448;7.238;2023-03-23T16:32:44;13.30;99.90
1083;DHT22;530;51.448;7.238;2023-03-23T16:35:12;13.40;99.90
1083;DHT22;530;51.448;7.238;2023-03-23T16:37:38;13.30;99.90
1083;DHT22;530;51.448;7.238;2023-03-23T16:40:05;13.30;99.90
1083;DHT22;530;51.448;7.238;2023-03-23T16:42:31;13.30;99.90
1083;DHT22;530;51.448;7.238;2023-03-23T16:44:57;13.30;99.90
1083;DHT22;530;51.448;7.238;2023-03-23T16:47:23;13.30;99.90
1083;DHT22;530;51.448;7.238;2023-03-23T16:49:50;13.20;99.90
1083;DHT22;530;51.448;7.238;2023-03-23T16:52:17;13.20;99.90
1083;DHT22;530;51.448;7.238;2023-03-23T16:54:43;13.30;99.90
1083;DHT22;530;51.448;7.238;2023-03-23T16:57:09;13.30;99.90
1083;DHT22;530;51.448;7.238;2023-03-23T16:59:35;13.30;99.90
1083;DHT22;530;51.448;7.238;2023-03-23T17:02:01;13.20;99.90
1083;DHT22;530;51.448;7.238;2023-03-23T17:04:32;13.20;99.90
1083;DHT22;530;51.448;7.238;2023-03-23T17:06:58;13.30;99.90
1083;DHT22;530;51.448;7.238;2023-03-23T17:09:25;13.20;99.90
1083;DHT22;530;51.448;7.238;2023-03-23T17:11:51;13.30;99.90
1083;DHT22;530;51.448;7.238;2023-03-23T17:14:17;13.20;99.90
1083;DHT22;530;51.448;7.238;2023-03-23T17:16:43;13.20;99.90
1083;DHT22;530;51.448;7.238;2023-03-23T17:19:08;13.20;99.90
1083;DHT22;530;51.448;7.238;2023-03-23T17:21:34;13.20;99.90
1083;DHT22;530;51.448;7.238;2023-03-23T17:24:00;13.10;99.90
1083;DHT22;530;51.448;7.238;2023-03-23T17:26:26;13.10;99.90
1083;DHT22;530;51.448;7.238;2023-03-23T17:28:52;13.10;99.90
1083;DHT22;530;51.448;7.238;2023-03-23T17:31:17;13.10;99.90
1083;DHT22;530;51.448;7.238;2023-03-23T17:33:43;13.10;99.90
1083;DHT22;530;51.448;7.238;2023-03-23T17:36:09;13.10;99.90
1083;DHT22;530;51.448;7.238;2023-03-23T17:38:34;13.00;99.90
1083;DHT22;530;51.448;7.238;2023-03-23T17:41:01;13.00;99.90
1083;DHT22;530;51.448;7.238;2023-03-23T17:43:28;13.00;99.90
1083;DHT22;530;51.448;7.238;2023-03-23T17:45:54;13.10;99.90
1083;DHT22;530;51.448;7.238;2023-03-23T17:48:20;13.00;99.90
1083;DHT22;530;51.448;7.238;2023-03-23T17:50:47;13.00;99.90
1083;DHT22;530;51.448;7.238;2023-03-23T17:53:14;13.00;99.90
1083;DHT22;530;51.448;7.238;2023-03-23T17:55:40;13.00;99.90
1083;DHT22;530;51.448;7.238;2023-03-23T17:58:08;13.00;99.90
1083;DHT22;530;51.448;7.238;2023-03-23T18:00:34;13.00;99.90
1083;DHT22;530;51.448;7.238;2023-03-23T18:03:00;13.00;99.90
1083;DHT22;530;51.448;7.238;2023-03-23T18:05:26;13.00;99.90
1083;DHT22;530;51.448;7.238;2023-03-23T18:07:52;13.00;99.90
1083;DHT22;530;51.448;7.238;2023-03-23T18:10:18;13.00;99.90
1083;DHT22;530;51.448;7.238;2023-03-23T18:12:47;13.00;99.90
1083;DHT22;530;51.448;7.238;2023-03-23T18:15:13;13.00;99.90
1083;DHT22;530;51.448;7.238;2023-03-23T18:17:39;13.00;99.90
1083;DHT22;530;51.448;7.238;2023-03-23T18:20:06;13.00;99.90
1083;DHT22;530;51.448;7.238;2023-03-23T18:22:32;13.00;99.90
1083;DHT22;530;51.448;7.238;2023-03-23T18:24:57;13.00;99.90
1083;DHT22;530;51.448;7.238;2023-03-23T18:27:23;13.00;99.90
1083;DHT22;530;51.448;7.238;2023-03-23T18:29:50;13.00;99.90
1083;DHT22;530;51.448;7.238;2023-03-23T18:32:16;13.00;99.90
1083;DHT22;530;51.448;7.238;2023-03-23T18:34:44;13.00;99.90
1083;DHT22;530;51.448;7.238;2023-03-23T18:37:11;13.00;99.90
1083;DHT22;530;51.448;7.238;2023-03-23T18:39:37;12.90;99.90
1083;DHT22;530;51.448;7.238;2023-03-23T18:42:03;12.90;99.90
1083;DHT22;530;51.448;7.238;2023-03-23T18:44:29;12.90;99.90
1083;DHT22;530;51.448;7.238;2023-03-23T18:46:55;12.90;99.90
1083;DHT22;530;51.448;7.238;2023-03-23T18:49:21;12.90;99.90